Isla Nueva, Argentina
Current Conditions -  °F | °C
As of 2:00 AM on Wednesday 28 Jan 2015 (Local Time) from SAWH Reporting Station
Scattered Clouds Scattered Clouds  
Wind Chill: 36°   Ceiling: Unl
Heat Index: 43°   Visibility: 6mi
Dew Point: 41°   Wind: 14mph
Humidity: 93%   Direction: 270°W
Pressure: 29.8"   Gusts: NA
Location:  55.25°S, 66.49°W
Report Text: SAWH 280500Z 27012KT 9999 FEW040 SCT09006/05 Q1009
Loading
Personal Weather Stations






























Interactive Weather Map New forecast layout! Learn more

10-Day Weather Forecast

Advertisements
Track Severe Weather on mobile